sensor_id;sensor_type;location;lat;lon;timestamp;temperature;humidity
21752;DHT22;11038;50.940;20.564;2022-10-16T00:01:30;13.50;99.90
21752;DHT22;11038;50.940;20.564;2022-10-16T00:03:05;13.50;99.90
21752;DHT22;11038;50.940;20.564;2022-10-16T00:04:38;13.50;99.90
21752;DHT22;11038;50.940;20.564;2022-10-16T00:06:12;13.50;99.90
21752;DHT22;11038;50.940;20.564;2022-10-16T00:07:52;13.60;99.90
21752;DHT22;11038;50.940;20.564;2022-10-16T00:09:24;13.60;99.90
21752;DHT22;11038;50.940;20.564;2022-10-16T00:11:15;13.60;99.90
21752;DHT22;11038;50.940;20.564;2022-10-16T00:12:51;13.50;99.90
21752;DHT22;11038;50.940;20.564;2022-10-16T00:14:23;13.50;99.90
21752;DHT22;11038;50.940;20.564;2022-10-16T00:15:57;13.50;99.90
21752;DHT22;11038;50.940;20.564;2022-10-16T00:17:30;13.50;99.90
21752;DHT22;11038;50.940;20.564;2022-10-16T00:19:03;13.50;99.90
21752;DHT22;11038;50.940;20.564;2022-10-16T00:20:35;13.50;99.90
21752;DHT22;11038;50.940;20.564;2022-10-16T00:22:08;13.40;99.90
21752;DHT22;11038;50.940;20.564;2022-10-16T00:23:49;13.40;99.90
21752;DHT22;11038;50.940;20.564;2022-10-16T00:25:26;13.50;99.90
21752;DHT22;11038;50.940;20.564;2022-10-16T00:26:59;13.40;99.90
21752;DHT22;11038;50.940;20.564;2022-10-16T00:28:31;13.40;99.90
21752;DHT22;11038;50.940;20.564;2022-10-16T00:30:05;13.30;99.90
21752;DHT22;11038;50.940;20.564;2022-10-16T00:31:38;13.30;99.90
21752;DHT22;11038;50.940;20.564;2022-10-16T00:33:10;13.30;99.90
21752;DHT22;11038;50.940;20.564;2022-10-16T00:34:42;13.30;99.90
21752;DHT22;11038;50.940;20.564;2022-10-16T00:36:17;13.30;99.90
21752;DHT22;11038;50.940;20.564;2022-10-16T00:37:52;13.30;99.90
21752;DHT22;11038;50.940;20.564;2022-10-16T00:39:24;13.30;99.90
21752;DHT22;11038;50.940;20.564;2022-10-16T00:40:57;13.30;99.90
21752;DHT22;11038;50.940;20.564;2022-10-16T00:42:29;13.20;99.90
21752;DHT22;11038;50.940;20.564;2022-10-16T00:44:40;13.20;99.90
21752;DHT22;11038;50.940;20.564;2022-10-16T00:46:17;13.10;99.90
21752;DHT22;11038;50.940;20.564;2022-10-16T00:47:54;13.00;99.90
21752;DHT22;11038;50.940;20.564;2022-10-16T00:49:28;13.10;99.90
21752;DHT22;11038;50.940;20.564;2022-10-16T00:51:01;13.10;99.90
21752;DHT22;11038;50.940;20.564;2022-10-16T00:52:34;13.00;99.90
21752;DHT22;11038;50.940;20.564;2022-10-16T00:54:14;13.10;99.90
21752;DHT22;11038;50.940;20.564;2022-10-16T00:55:49;13.00;99.90
21752;DHT22;11038;50.940;20.564;2022-10-16T00:57:22;13.00;99.90
21752;DHT22;11038;50.940;20.564;2022-10-16T00:58:54;13.10;99.90
21752;DHT22;11038;50.940;20.564;2022-10-16T01:00:27;13.00;99.90
21752;DHT22;11038;50.940;20.564;2022-10-16T01:02:00;13.10;99.90
21752;DHT22;11038;50.940;20.564;2022-10-16T01:03:36;13.10;99.90
21752;DHT22;11038;50.940;20.564;2022-10-16T01:05:09;13.10;99.90
21752;DHT22;11038;50.940;20.564;2022-10-16T01:07:18;13.10;99.90
21752;DHT22;11038;50.940;20.564;2022-10-16T01:09:23;13.00;99.90
21752;DHT22;11038;50.940;20.564;2022-10-16T01:13:11;13.00;99.90
21752;DHT22;11038;50.940;20.564;2022-10-16T01:15:19;13.00;99.90
21752;DHT22;11038;50.940;20.564;2022-10-16T01:17:17;12.90;99.90
21752;DHT22;11038;50.940;20.564;2022-10-16T01:19:16;13.00;99.90
21752;DHT22;11038;50.940;20.564;2022-10-16T01:21:27;12.90;99.90
21752;DHT22;11038;50.940;20.564;2022-10-16T01:24:49;12.90;99.90
21752;DHT22;11038;50.940;20.564;2022-10-16T01:28:11;12.80;99.90
21752;DHT22;11038;50.940;20.564;2022-10-16T01:30:15;12.80;99.90
21752;DHT22;11038;50.940;20.564;2022-10-16T01:32:08;12.90;99.90
21752;DHT22;11038;50.940;20.564;2022-10-16T01:33:56;12.80;99.90
21752;DHT22;11038;50.940;20.564;2022-10-16T01:35:47;12.80;99.90
21752;DHT22;11038;50.940;20.564;2022-10-16T01:37:47;12.80;99.90
21752;DHT22;11038;50.940;20.564;2022-10-16T01:39:27;12.80;99.90
21752;DHT22;11038;50.940;20.564;2022-10-16T01:43:25;12.80;99.90
21752;DHT22;11038;50.940;20.564;2022-10-16T01:45:04;12.80;99.90
21752;DHT22;11038;50.940;20.564;2022-10-16T01:46:43;12.80;99.90
21752;DHT22;11038;50.940;20.564;2022-10-16T01:48:20;12.80;99.90
21752;DHT22;11038;50.940;20.564;2022-10-16T01:49:55;12.80;99.90
21752;DHT22;11038;50.940;20.564;2022-10-16T01:51:29;12.80;99.90
21752;DHT22;11038;50.940;20.564;2022-10-16T01:53:03;12.80;99.90
21752;DHT22;11038;50.940;20.564;2022-10-16T01:54:37;12.80;99.90
21752;DHT22;11038;50.940;20.564;2022-10-16T01:56:15;12.80;99.90
21752;DHT22;11038;50.940;20.564;2022-10-16T01:57:51;12.80;99.90
21752;DHT22;11038;50.940;20.564;2022-10-16T01:59:26;12.70;99.90
21752;DHT22;11038;50.940;20.564;2022-10-16T02:01:03;12.70;99.90
21752;DHT22;11038;50.940;20.564;2022-10-16T02:02:42;12.70;99.90
21752;DHT22;11038;50.940;20.564;2022-10-16T02:05:08;12.80;99.90
21752;DHT22;11038;50.940;20.564;2022-10-16T02:06:21;12.70;99.90
21752;DHT22;11038;50.940;20.564;2022-10-16T02:07:54;12.80;99.90
21752;DHT22;11038;50.940;20.564;2022-10-16T02:09:32;12.80;99.90
21752;DHT22;11038;50.940;20.564;2022-10-16T02:11:06;12.80;99.90
21752;DHT22;11038;50.940;20.564;2022-10-16T02:12:42;12.80;99.90
21752;DHT22;11038;50.940;20.564;2022-10-16T02:14:38;12.70;99.90
21752;DHT22;11038;50.940;20.564;2022-10-16T02:16:13;12.80;99.90
21752;DHT22;11038;50.940;20.564;2022-10-16T02:25:02;12.50;99.90
21752;DHT22;11038;50.940;20.564;2022-10-16T02:28:42;12.40;99.90
21752;DHT22;11038;50.940;20.564;2022-10-16T02:30:32;12.40;99.90
21752;DHT22;11038;50.940;20.564;2022-10-16T02:32:30;12.40;99.90
21752;DHT22;11038;50.940;20.564;2022-10-16T02:34:06;12.30;99.90
21752;DHT22;11038;50.940;20.564;2022-10-16T02:35:40;12.30;99.90
21752;DHT22;11038;50.940;20.564;2022-10-16T02:37:16;12.30;99.90
21752;DHT22;11038;50.940;20.564;2022-10-16T02:38:50;12.30;99.90
21752;DHT22;11038;50.940;20.564;2022-10-16T02:40:24;12.30;99.90
21752;DHT22;11038;50.940;20.564;2022-10-16T02:41:58;12.30;99.90
21752;DHT22;11038;50.940;20.564;2022-10-16T02:43:30;12.30;99.90
21752;DHT22;11038;50.940;20.564;2022-10-16T02:45:04;12.20;99.90
21752;DHT22;11038;50.940;20.564;2022-10-16T02:46:37;12.20;99.90
21752;DHT22;11038;50.940;20.564;2022-10-16T02:48:09;12.20;99.90
21752;DHT22;11038;50.940;20.564;2022-10-16T02:49:41;12.20;99.90
21752;DHT22;11038;50.940;20.564;2022-10-16T02:51:14;12.20;99.90
21752;DHT22;11038;50.940;20.564;2022-10-16T02:52:46;12.20;99.90
21752;DHT22;11038;50.940;20.564;2022-10-16T02:54:18;12.10;99.90
21752;DHT22;11038;50.940;20.564;2022-10-16T02:55:51;12.10;99.90
21752;DHT22;11038;50.940;20.564;2022-10-16T02:57:23;12.10;99.90
21752;DHT22;11038;50.940;20.564;2022-10-16T02:58:56;12.10;99.90
21752;DHT22;11038;50.940;20.564;2022-10-16T03:00:28;12.10;99.90
21752;DHT22;11038;50.940;20.564;2022-10-16T03:02:01;12.10;99.90
21752;DHT22;11038;50.940;20.564;2022-10-16T03:03:33;12.00;99.90
21752;DHT22;11038;50.940;20.564;2022-10-16T03:05:05;12.00;99.90
21752;DHT22;11038;50.940;20.564;2022-10-16T03:06:39;12.00;99.90
21752;DHT22;11038;50.940;20.564;2022-10-16T03:08:12;12.00;99.90
21752;DHT22;11038;50.940;20.564;2022-10-16T03:09:45;12.00;99.90
21752;DHT22;11038;50.940;20.564;2022-10-16T03:11:17;11.90;99.90
21752;DHT22;11038;50.940;20.564;2022-10-16T03:12:49;11.90;99.90
21752;DHT22;11038;50.940;20.564;2022-10-16T03:14:21;11.90;99.90
21752;DHT22;11038;50.940;20.564;2022-10-16T03:15:53;12.00;99.90
21752;DHT22;11038;50.940;20.564;2022-10-16T03:17:25;11.90;99.90
21752;DHT22;11038;50.940;20.564;2022-10-16T03:18:59;11.90;99.90
21752;DHT22;11038;50.940;20.564;2022-10-16T03:20:31;11.90;99.90
21752;DHT22;11038;50.940;20.564;2022-10-16T03:22:03;11.80;99.90
21752;DHT22;11038;50.940;20.564;2022-10-16T03:23:36;11.90;99.90
21752;DHT22;11038;50.940;20.564;2022-10-16T03:25:08;11.90;99.90
21752;DHT22;11038;50.940;20.564;2022-10-16T03:26:40;11.90;99.90
21752;DHT22;11038;50.940;20.564;2022-10-16T03:28:16;11.90;99.90
21752;DHT22;11038;50.940;20.564;2022-10-16T03:29:48;11.90;99.90
21752;DHT22;11038;50.940;20.564;2022-10-16T03:31:21;11.90;99.90
21752;DHT22;11038;50.940;20.564;2022-10-16T03:32:53;11.80;99.90
21752;DHT22;11038;50.940;20.564;2022-10-16T03:34:26;11.90;99.90
21752;DHT22;11038;50.940;20.564;2022-10-16T03:35:59;11.80;99.90
21752;DHT22;11038;50.940;20.564;2022-10-16T03:37:32;11.80;99.90
21752;DHT22;11038;50.940;20.564;2022-10-16T03:39:04;11.90;99.90
21752;DHT22;11038;50.940;20.564;2022-10-16T03:40:36;11.90;99.90
21752;DHT22;11038;50.940;20.564;2022-10-16T03:42:08;11.90;99.90
21752;DHT22;11038;50.940;20.564;2022-10-16T03:43:41;11.80;99.90
21752;DHT22;11038;50.940;20.564;2022-10-16T03:45:13;11.80;99.90
21752;DHT22;11038;50.940;20.564;2022-10-16T03:46:45;11.80;99.90
21752;DHT22;11038;50.940;20.564;2022-10-16T03:48:19;11.80;99.90
21752;DHT22;11038;50.940;20.564;2022-10-16T03:49:51;11.80;99.90
21752;DHT22;11038;50.940;20.564;2022-10-16T03:51:23;11.90;99.90
21752;DHT22;11038;50.940;20.564;2022-10-16T03:52:56;11.90;99.90
21752;DHT22;11038;50.940;20.564;2022-10-16T03:54:28;11.90;99.90
21752;DHT22;11038;50.940;20.564;2022-10-16T03:56:00;11.90;99.90
21752;DHT22;11038;50.940;20.564;2022-10-16T03:57:33;11.90;99.90
21752;DHT22;11038;50.940;20.564;2022-10-16T03:59:05;11.90;99.90
21752;DHT22;11038;50.940;20.564;2022-10-16T04:00:42;11.90;99.90
21752;DHT22;11038;50.940;20.564;2022-10-16T04:02:15;11.90;99.90
21752;DHT22;11038;50.940;20.564;2022-10-16T04:03:47;11.90;99.90
21752;DHT22;11038;50.940;20.564;2022-10-16T04:05:20;11.90;99.90
21752;DHT22;11038;50.940;20.564;2022-10-16T04:06:52;11.90;99.90
21752;DHT22;11038;50.940;20.564;2022-10-16T04:08:24;12.00;99.90
21752;DHT22;11038;50.940;20.564;2022-10-16T04:09:57;12.00;99.90
21752;DHT22;11038;50.940;20.564;2022-10-16T04:11:30;11.90;99.90
21752;DHT22;11038;50.940;20.564;2022-10-16T04:13:02;11.90;99.90
21752;DHT22;11038;50.940;20.564;2022-10-16T04:14:35;12.00;99.90
21752;DHT22;11038;50.940;20.564;2022-10-16T04:16:07;12.00;99.90
21752;DHT22;11038;50.940;20.564;2022-10-16T04:17:39;12.00;99.90
21752;DHT22;11038;50.940;20.564;2022-10-16T04:19:12;12.00;99.90
21752;DHT22;11038;50.940;20.564;2022-10-16T04:20:44;12.00;99.90
21752;DHT22;11038;50.940;20.564;2022-10-16T04:22:16;12.00;99.90
21752;DHT22;11038;50.940;20.564;2022-10-16T04:23:48;12.00;99.90
21752;DHT22;11038;50.940;20.564;2022-10-16T04:25:21;12.00;99.90
21752;DHT22;11038;50.940;20.564;2022-10-16T04:26:54;12.00;99.90
21752;DHT22;11038;50.940;20.564;2022-10-16T04:28:26;12.00;99.90
21752;DHT22;11038;50.940;20.564;2022-10-16T04:30:00;12.00;99.90
21752;DHT22;11038;50.940;20.564;2022-10-16T04:31:33;12.00;99.90
21752;DHT22;11038;50.940;20.564;2022-10-16T04:33:05;12.00;99.90
21752;DHT22;11038;50.940;20.564;2022-10-16T04:34:39;12.00;99.90
21752;DHT22;11038;50.940;20.564;2022-10-16T04:36:12;12.00;99.90
21752;DHT22;11038;50.940;20.564;2022-10-16T04:37:45;12.00;99.90
21752;DHT22;11038;50.940;20.564;2022-10-16T04:39:17;12.10;99.90
21752;DHT22;11038;50.940;20.564;2022-10-16T04:40:50;12.10;99.90
21752;DHT22;11038;50.940;20.564;2022-10-16T04:42:22;12.00;99.90
21752;DHT22;11038;50.940;20.564;2022-10-16T04:43:54;12.10;99.90
21752;DHT22;11038;50.940;20.564;2022-10-16T04:45:27;12.10;99.90
21752;DHT22;11038;50.940;20.564;2022-10-16T04:46:59;12.10;99.90
21752;DHT22;11038;50.940;20.564;2022-10-16T04:48:32;12.10;99.90
21752;DHT22;11038;50.940;20.564;2022-10-16T04:50:05;12.10;99.90
21752;DHT22;11038;50.940;20.564;2022-10-16T04:51:38;12.20;99.90
21752;DHT22;11038;50.940;20.564;2022-10-16T04:53:10;12.10;99.90
21752;DHT22;11038;50.940;20.564;2022-10-16T04:54:43;12.20;99.90
21752;DHT22;11038;50.940;20.564;2022-10-16T04:56:17;12.20;99.90
21752;DHT22;11038;50.940;20.564;2022-10-16T04:57:49;12.20;99.90
21752;DHT22;11038;50.940;20.564;2022-10-16T04:59:22;12.20;99.90
21752;DHT22;11038;50.940;20.564;2022-10-16T05:00:55;12.20;99.90
21752;DHT22;11038;50.940;20.564;2022-10-16T05:02:27;12.20;99.90
21752;DHT22;11038;50.940;20.564;2022-10-16T05:04:00;12.20;99.90
21752;DHT22;11038;50.940;20.564;2022-10-16T05:05:32;12.20;99.90
21752;DHT22;11038;50.940;20.564;2022-10-16T05:07:05;12.20;99.90
21752;DHT22;11038;50.940;20.564;2022-10-16T05:08:37;12.20;99.90
21752;DHT22;11038;50.940;20.564;2022-10-16T05:10:09;12.20;99.90
21752;DHT22;11038;50.940;20.564;2022-10-16T05:11:42;12.20;99.90
21752;DHT22;11038;50.940;20.564;2022-10-16T05:13:14;12.20;99.90
21752;DHT22;11038;50.940;20.564;2022-10-16T05:14:46;12.20;99.90
21752;DHT22;11038;50.940;20.564;2022-10-16T05:16:19;12.20;99.90
21752;DHT22;11038;50.940;20.564;2022-10-16T05:17:54;12.20;99.90
21752;DHT22;11038;50.940;20.564;2022-10-16T05:19:27;12.20;99.90
21752;DHT22;11038;50.940;20.564;2022-10-16T05:21:00;12.30;99.90
21752;DHT22;11038;50.940;20.564;2022-10-16T05:22:32;12.40;99.90
21752;DHT22;11038;50.940;20.564;2022-10-16T05:24:04;12.40;99.90
21752;DHT22;11038;50.940;20.564;2022-10-16T05:25:37;12.40;99.90
21752;DHT22;11038;50.940;20.564;2022-10-16T05:27:10;12.50;99.90
21752;DHT22;11038;50.940;20.564;2022-10-16T05:28:43;12.50;99.90
21752;DHT22;11038;50.940;20.564;2022-10-16T05:30:17;12.40;99.90
21752;DHT22;11038;50.940;20.564;2022-10-16T05:31:51;12.40;99.90
21752;DHT22;11038;50.940;20.564;2022-10-16T05:33:25;12.40;99.90
21752;DHT22;11038;50.940;20.564;2022-10-16T05:34:58;12.50;99.90
21752;DHT22;11038;50.940;20.564;2022-10-16T05:36:31;12.40;99.90
21752;DHT22;11038;50.940;20.564;2022-10-16T05:38:03;12.50;99.90
21752;DHT22;11038;50.940;20.564;2022-10-16T05:39:36;12.40;99.90
21752;DHT22;11038;50.940;20.564;2022-10-16T05:42:56;12.40;99.90
21752;DHT22;11038;50.940;20.564;2022-10-16T05:44:29;12.50;99.90
21752;DHT22;11038;50.940;20.564;2022-10-16T05:46:05;12.50;99.90
21752;DHT22;11038;50.940;20.564;2022-10-16T05:47:38;12.50;99.90
21752;DHT22;11038;50.940;20.564;2022-10-16T05:49:11;12.50;99.90
21752;DHT22;11038;50.940;20.564;2022-10-16T05:50:43;12.60;99.90
21752;DHT22;11038;50.940;20.564;2022-10-16T05:52:15;12.60;99.90
21752;DHT22;11038;50.940;20.564;2022-10-16T05:53:48;12.70;99.90
21752;DHT22;11038;50.940;20.564;2022-10-16T05:55:20;12.70;99.90
21752;DHT22;11038;50.940;20.564;2022-10-16T05:56:52;12.70;99.90
21752;DHT22;11038;50.940;20.564;2022-10-16T05:58:27;12.70;99.90
21752;DHT22;11038;50.940;20.564;2022-10-16T06:00:01;12.70;99.90
21752;DHT22;11038;50.940;20.564;2022-10-16T06:01:34;12.70;99.90
21752;DHT22;11038;50.940;20.564;2022-10-16T06:03:07;12.70;99.90
21752;DHT22;11038;50.940;20.564;2022-10-16T06:04:39;12.60;99.90
21752;DHT22;11038;50.940;20.564;2022-10-16T06:06:14;12.70;99.90
21752;DHT22;11038;50.940;20.564;2022-10-16T06:07:51;13.20;99.90
21752;DHT22;11038;50.940;20.564;2022-10-16T06:09:23;13.80;99.90
21752;DHT22;11038;50.940;20.564;2022-10-16T06:11:07;14.20;99.90
21752;DHT22;11038;50.940;20.564;2022-10-16T06:12:41;14.70;99.90
21752;DHT22;11038;50.940;20.564;2022-10-16T06:14:13;15.30;99.90
21752;DHT22;11038;50.940;20.564;2022-10-16T06:15:45;15.60;99.90
21752;DHT22;11038;50.940;20.564;2022-10-16T06:17:18;15.70;99.90
21752;DHT22;11038;50.940;20.564;2022-10-16T06:18:51;16.20;99.90
21752;DHT22;11038;50.940;20.564;2022-10-16T06:20:26;16.30;99.90
21752;DHT22;11038;50.940;20.564;2022-10-16T06:21:58;16.80;99.90
21752;DHT22;11038;50.940;20.564;2022-10-16T06:23:30;17.30;99.90
21752;DHT22;11038;50.940;20.564;2022-10-16T06:25:03;17.50;99.90
21752;DHT22;11038;50.940;20.564;2022-10-16T06:26:37;17.60;99.90
21752;DHT22;11038;50.940;20.564;2022-10-16T06:28:10;17.70;99.90
21752;DHT22;11038;50.940;20.564;2022-10-16T06:29:42;17.90;98.10
21752;DHT22;11038;50.940;20.564;2022-10-16T06:31:16;17.90;97.80
21752;DHT22;11038;50.940;20.564;2022-10-16T06:32:48;18.30;96.50
21752;DHT22;11038;50.940;20.564;2022-10-16T06:34:21;18.20;95.80
21752;DHT22;11038;50.940;20.564;2022-10-16T06:35:53;18.50;96.00
21752;DHT22;11038;50.940;20.564;2022-10-16T06:37:32;18.50;95.10
21752;DHT22;11038;50.940;20.564;2022-10-16T06:39:04;18.40;94.30
21752;DHT22;11038;50.940;20.564;2022-10-16T06:40:39;18.30;94.70
21752;DHT22;11038;50.940;20.564;2022-10-16T06:42:11;18.40;94.80
21752;DHT22;11038;50.940;20.564;2022-10-16T06:43:43;18.10;94.90
21752;DHT22;11038;50.940;20.564;2022-10-16T06:45:18;18.00;95.10
21752;DHT22;11038;50.940;20.564;2022-10-16T06:46:51;17.60;96.00
21752;DHT22;11038;50.940;20.564;2022-10-16T06:48:24;18.20;96.30
21752;DHT22;11038;50.940;20.564;2022-10-16T06:49:57;17.90;95.50
21752;DHT22;11038;50.940;20.564;2022-10-16T06:51:30;17.70;96.20
21752;DHT22;11038;50.940;20.564;2022-10-16T06:53:03;17.80;96.30
21752;DHT22;11038;50.940;20.564;2022-10-16T06:54:36;17.80;96.80
21752;DHT22;11038;50.940;20.564;2022-10-16T06:56:18;18.10;96.40
21752;DHT22;11038;50.940;20.564;2022-10-16T06:57:50;18.10;95.60
21752;DHT22;11038;50.940;20.564;2022-10-16T06:59:23;17.70;95.70
21752;DHT22;11038;50.940;20.564;2022-10-16T07:00:56;17.90;95.40
21752;DHT22;11038;50.940;20.564;2022-10-16T07:02:28;17.60;95.90
21752;DHT22;11038;50.940;20.564;2022-10-16T07:04:02;17.60;96.30
21752;DHT22;11038;50.940;20.564;2022-10-16T07:05:38;17.30;96.50
21752;DHT22;11038;50.940;20.564;2022-10-16T07:07:11;17.20;97.30
21752;DHT22;11038;50.940;20.564;2022-10-16T07:08:45;17.20;97.40
21752;DHT22;11038;50.940;20.564;2022-10-16T07:10:19;17.30;98.00
21752;DHT22;11038;50.940;20.564;2022-10-16T07:11:51;17.60;97.80
21752;DHT22;11038;50.940;20.564;2022-10-16T07:13:24;17.40;97.50
21752;DHT22;11038;50.940;20.564;2022-10-16T07:14:56;17.30;97.80
21752;DHT22;11038;50.940;20.564;2022-10-16T07:16:31;17.20;97.90
21752;DHT22;11038;50.940;20.564;2022-10-16T07:18:04;16.90;98.30
21752;DHT22;11038;50.940;20.564;2022-10-16T07:19:36;16.70;99.10
21752;DHT22;11038;50.940;20.564;2022-10-16T07:21:20;16.70;99.90
21752;DHT22;11038;50.940;20.564;2022-10-16T07:22:53;16.50;99.90
21752;DHT22;11038;50.940;20.564;2022-10-16T07:24:25;16.30;99.90
21752;DHT22;11038;50.940;20.564;2022-10-16T07:25:57;16.10;99.90
21752;DHT22;11038;50.940;20.564;2022-10-16T07:27:30;16.00;99.90
21752;DHT22;11038;50.940;20.564;2022-10-16T07:29:02;16.00;99.90
21752;DHT22;11038;50.940;20.564;2022-10-16T07:30:36;16.10;99.90
21752;DHT22;11038;50.940;20.564;2022-10-16T07:32:09;16.10;99.90
21752;DHT22;11038;50.940;20.564;2022-10-16T07:33:42;16.00;99.90
21752;DHT22;11038;50.940;20.564;2022-10-16T07:35:16;16.10;99.90
21752;DHT22;11038;50.940;20.564;2022-10-16T07:36:49;16.20;99.90
21752;DHT22;11038;50.940;20.564;2022-10-16T07:38:22;16.20;99.90
21752;DHT22;11038;50.940;20.564;2022-10-16T07:39:54;16.20;99.90
21752;DHT22;11038;50.940;20.564;2022-10-16T07:41:27;16.10;99.90
21752;DHT22;11038;50.940;20.564;2022-10-16T07:43:00;16.10;99.90
21752;DHT22;11038;50.940;20.564;2022-10-16T07:44:33;16.10;99.90
21752;DHT22;11038;50.940;20.564;2022-10-16T07:46:06;16.00;99.90
21752;DHT22;11038;50.940;20.564;2022-10-16T07:47:38;16.10;99.90
21752;DHT22;11038;50.940;20.564;2022-10-16T07:49:10;16.00;99.90
21752;DHT22;11038;50.940;20.564;2022-10-16T07:50:43;16.00;99.90
21752;DHT22;11038;50.940;20.564;2022-10-16T07:52:16;15.70;99.90
21752;DHT22;11038;50.940;20.564;2022-10-16T07:53:49;15.70;99.90
21752;DHT22;11038;50.940;20.564;2022-10-16T07:55:21;15.80;99.90
21752;DHT22;11038;50.940;20.564;2022-10-16T07:56:54;16.00;99.90
21752;DHT22;11038;50.940;20.564;2022-10-16T07:58:27;16.00;99.90
21752;DHT22;11038;50.940;20.564;2022-10-16T08:00:00;16.20;99.90
21752;DHT22;11038;50.940;20.564;2022-10-16T08:01:33;16.20;99.90
21752;DHT22;11038;50.940;20.564;2022-10-16T08:03:05;16.10;99.90
21752;DHT22;11038;50.940;20.564;2022-10-16T08:04:37;16.20;99.90
21752;DHT22;11038;50.940;20.564;2022-10-16T08:06:10;16.40;99.90
21752;DHT22;11038;50.940;20.564;2022-10-16T08:07:42;16.30;99.90
21752;DHT22;11038;50.940;20.564;2022-10-16T08:09:14;16.50;99.90
21752;DHT22;11038;50.940;20.564;2022-10-16T08:10:46;16.50;99.90
21752;DHT22;11038;50.940;20.564;2022-10-16T08:12:19;16.50;99.90
21752;DHT22;11038;50.940;20.564;2022-10-16T08:13:51;16.60;99.90
21752;DHT22;11038;50.940;20.564;2022-10-16T08:15:23;16.60;99.90
21752;DHT22;11038;50.940;20.564;2022-10-16T08:16:56;16.60;99.90
21752;DHT22;11038;50.940;20.564;2022-10-16T08:18:28;16.50;99.90
21752;DHT22;11038;50.940;20.564;2022-10-16T08:20:00;16.40;99.90
21752;DHT22;11038;50.940;20.564;2022-10-16T08:21:33;16.60;99.90
21752;DHT22;11038;50.940;20.564;2022-10-16T08:23:06;16.50;99.90
21752;DHT22;11038;50.940;20.564;2022-10-16T08:24:38;16.50;99.90
21752;DHT22;11038;50.940;20.564;2022-10-16T08:26:11;16.60;99.90
21752;DHT22;11038;50.940;20.564;2022-10-16T08:27:44;16.50;99.90
21752;DHT22;11038;50.940;20.564;2022-10-16T08:29:16;16.70;99.90
21752;DHT22;11038;50.940;20.564;2022-10-16T08:30:48;16.60;99.90
21752;DHT22;11038;50.940;20.564;2022-10-16T08:32:21;16.60;99.90
21752;DHT22;11038;50.940;20.564;2022-10-16T08:33:58;16.70;99.90
21752;DHT22;11038;50.940;20.564;2022-10-16T08:35:30;16.80;99.90
21752;DHT22;11038;50.940;20.564;2022-10-16T08:37:02;16.80;99.90
21752;DHT22;11038;50.940;20.564;2022-10-16T08:38:35;16.70;99.90
21752;DHT22;11038;50.940;20.564;2022-10-16T08:47:26;16.80;99.90
21752;DHT22;11038;50.940;20.564;2022-10-16T08:49:14;17.10;99.90
21752;DHT22;11038;50.940;20.564;2022-10-16T08:50:48;17.30;99.90
21752;DHT22;11038;50.940;20.564;2022-10-16T08:52:24;17.50;99.90
21752;DHT22;11038;50.940;20.564;2022-10-16T08:54:10;17.60;99.90
21752;DHT22;11038;50.940;20.564;2022-10-16T08:55:46;17.70;99.90
21752;DHT22;11038;50.940;20.564;2022-10-16T08:57:24;17.50;99.90
21752;DHT22;11038;50.940;20.564;2022-10-16T08:59:06;17.30;99.90
21752;DHT22;11038;50.940;20.564;2022-10-16T09:00:47;17.10;99.90
21752;DHT22;11038;50.940;20.564;2022-10-16T09:13:36;17.80;99.90
21752;DHT22;11038;50.940;20.564;2022-10-16T09:15:53;17.60;99.90
21752;DHT22;11038;50.940;20.564;2022-10-16T09:19:31;17.90;99.90
21752;DHT22;11038;50.940;20.564;2022-10-16T09:23:14;18.10;99.90
21752;DHT22;11038;50.940;20.564;2022-10-16T09:24:51;18.20;99.80
21752;DHT22;11038;50.940;20.564;2022-10-16T09:26:24;18.60;99.80
21752;DHT22;11038;50.940;20.564;2022-10-16T09:27:57;18.80;99.90
21752;DHT22;11038;50.940;20.564;2022-10-16T09:29:30;19.10;99.10
21752;DHT22;11038;50.940;20.564;2022-10-16T09:31:02;19.00;98.40
21752;DHT22;11038;50.940;20.564;2022-10-16T09:32:35;19.20;96.10
21752;DHT22;11038;50.940;20.564;2022-10-16T09:34:16;19.00;96.80
21752;DHT22;11038;50.940;20.564;2022-10-16T09:35:57;19.10;96.00
21752;DHT22;11038;50.940;20.564;2022-10-16T09:37:32;19.00;96.40
21752;DHT22;11038;50.940;20.564;2022-10-16T09:39:09;19.20;96.80
21752;DHT22;11038;50.940;20.564;2022-10-16T09:40:43;19.00;96.20
21752;DHT22;11038;50.940;20.564;2022-10-16T09:42:36;19.00;96.00
21752;DHT22;11038;50.940;20.564;2022-10-16T09:46:02;19.00;95.00
21752;DHT22;11038;50.940;20.564;2022-10-16T09:47:39;18.50;96.20
21752;DHT22;11038;50.940;20.564;2022-10-16T09:49:26;18.60;96.30
21752;DHT22;11038;50.940;20.564;2022-10-16T09:51:01;18.80;96.30
21752;DHT22;11038;50.940;20.564;2022-10-16T09:52:35;19.20;96.20
21752;DHT22;11038;50.940;20.564;2022-10-16T09:55:51;19.60;95.40
21752;DHT22;11038;50.940;20.564;2022-10-16T09:57:25;19.70;94.60
21752;DHT22;11038;50.940;20.564;2022-10-16T09:59:01;19.80;94.50
21752;DHT22;11038;50.940;20.564;2022-10-16T10:00:42;19.70;94.10
21752;DHT22;11038;50.940;20.564;2022-10-16T10:02:35;19.80;94.40
21752;DHT22;11038;50.940;20.564;2022-10-16T10:04:12;19.90;93.90
21752;DHT22;11038;50.940;20.564;2022-10-16T10:05:48;20.10;93.60
21752;DHT22;11038;50.940;20.564;2022-10-16T10:07:25;20.00;93.00
21752;DHT22;11038;50.940;20.564;2022-10-16T10:10:42;20.10;92.90
21752;DHT22;11038;50.940;20.564;2022-10-16T10:12:29;20.00;93.00
21752;DHT22;11038;50.940;20.564;2022-10-16T10:16:23;19.80;92.20
21752;DHT22;11038;50.940;20.564;2022-10-16T10:17:57;19.60;91.90
21752;DHT22;11038;50.940;20.564;2022-10-16T10:19:30;19.60;92.80
21752;DHT22;11038;50.940;20.564;2022-10-16T10:21:14;19.90;93.00
21752;DHT22;11038;50.940;20.564;2022-10-16T10:22:47;20.30;93.00
21752;DHT22;11038;50.940;20.564;2022-10-16T10:24:20;20.70;92.90
21752;DHT22;11038;50.940;20.564;2022-10-16T10:29:43;21.50;90.50
21752;DHT22;11038;50.940;20.564;2022-10-16T10:31:33;21.90;90.10
21752;DHT22;11038;50.940;20.564;2022-10-16T10:33:18;21.00;88.20
21752;DHT22;11038;50.940;20.564;2022-10-16T10:35:44;21.00;90.00
21752;DHT22;11038;50.940;20.564;2022-10-16T10:39:25;20.70;89.30
21752;DHT22;11038;50.940;20.564;2022-10-16T10:48:24;20.50;90.20
21752;DHT22;11038;50.940;20.564;2022-10-16T11:01:56;21.10;90.40
21752;DHT22;11038;50.940;20.564;2022-10-16T11:05:40;21.90;89.60
21752;DHT22;11038;50.940;20.564;2022-10-16T11:07:18;22.30;88.70
21752;DHT22;11038;50.940;20.564;2022-10-16T11:09:00;22.00;87.10
21752;DHT22;11038;50.940;20.564;2022-10-16T11:12:34;22.60;86.20